Time;durP1;ratioP1;P1;durP2;ratioP2;P2;SDS_P1;SDS_P2;PMS_P1;PMS_P2;Temp;Humidity;BMP_temperature;BMP_pressure;BME280_temperature;BME280_humidity;BME280_pressure;Samples;Min_cycle;Max_cycle;Signal;HPM_P1;HPM_P2
2023/10/15 00:00:26;;;;;;;16.12;6.90;;;;;;;15.76;52.13;100104.31;1713233;83;21252;-82
2023/10/15 00:03:13;;;;;;;13.08;7.45;;;;;;;16.11;51.46;100104.87;1729214;83;21342;-82
2023/10/15 00:06:12;;;;;;;11.97;6.08;;;;;;;15.91;51.84;100106.86;1727981;83;21330;-81
2023/10/15 00:09:17;;;;;;;13.90;6.70;;;;;;;15.97;51.63;100103.22;1727657;83;21844;-82
2023/10/15 00:12:24;;;;;;;11.90;6.67;;;;;;;15.95;51.33;100109.47;1728059;83;21962;-81
2023/10/15 00:15:31;;;;;;;11.30;7.17;;;;;;;16.32;50.55;100099.58;1706410;83;22015;-81
2023/10/15 00:18:36;;;;;;;10.35;6.37;;;;;;;16.34;50.09;100102.45;1693669;84;21361;-82
2023/10/15 00:21:42;;;;;;;11.90;6.03;;;;;;;16.36;49.83;100096.70;1661467;85;21320;-82
2023/10/15 00:24:50;;;;;;;12.98;6.65;;;;;;;16.63;49.01;100099.34;1676166;85;21331;-82
2023/10/15 00:28:01;;;;;;;12.15;5.87;;;;;;;16.55;48.90;100090.77;1705369;84;21296;-82
2023/10/15 00:31:08;;;;;;;12.63;6.55;;;;;;;16.39;49.23;100083.85;1730126;82;21288;-82
2023/10/15 00:34:17;;;;;;;15.43;5.97;;;;;;;16.43;49.40;100078.20;1740757;82;21303;-82
2023/10/15 00:37:18;;;;;;;13.58;6.95;;;;;;;16.32;49.90;100075.58;1740724;82;21287;-82
2023/10/15 00:40:23;;;;;;;10.80;6.65;;;;;;;16.36;50.32;100074.62;1741146;82;21279;-83
2023/10/15 00:43:28;;;;;;;12.63;7.58;;;;;;;16.54;50.21;100075.28;1718649;82;21271;-82
2023/10/15 00:46:37;;;;;;;12.63;7.15;;;;;;;16.68;49.97;100073.28;1740305;82;21330;-82
2023/10/15 00:49:43;;;;;;;13.83;8.23;;;;;;;16.52;50.32;100079.64;1741009;82;21350;-82
2023/10/15 00:52:49;;;;;;;15.32;7.62;;;;;;;16.77;49.89;100067.30;1740548;82;21318;-82
2023/10/15 00:56:10;;;;;;;11.57;6.75;;;;;;;16.49;50.35;100067.66;1740464;82;21276;-83
2023/10/15 00:59:19;;;;;;;14.50;7.28;;;;;;;16.19;50.78;100066.55;1740873;82;21279;-82
2023/10/15 01:02:28;;;;;;;11.08;6.28;;;;;;;16.38;50.18;100053.72;1740221;82;21326;-82
2023/10/15 01:05:45;;;;;;;11.43;7.62;;;;;;;16.48;49.60;100050.78;1740542;82;21311;-82
2023/10/15 01:08:43;;;;;;;11.38;7.45;;;;;;;16.26;49.79;100048.88;1719660;82;21266;-82
2023/10/15 01:12:19;;;;;;;18.15;9.08;;;;;;;16.17;49.89;100043.83;1740760;82;21298;-81
2023/10/15 01:15:07;;;;;;;16.93;8.25;;;;;;;15.86;50.40;100041.31;1740718;82;21833;-81
2023/10/15 01:18:12;;;;;;;21.62;8.13;;;;;;;16.09;50.07;100041.64;1740741;82;21912;-82
2023/10/15 01:21:17;;;;;;;14.95;9.00;;;;;;;16.30;49.70;100045.15;1739550;81;21274;-82
2023/10/15 01:24:23;;;;;;;15.20;7.83;;;;;;;16.44;49.60;100040.41;1740615;82;21274;-82
2023/10/15 01:27:32;;;;;;;13.53;6.80;;;;;;;16.59;49.40;100045.08;1739670;82;21302;-82
2023/10/15 01:30:40;;;;;;;7.25;5.33;;;;;;;16.67;49.19;100047.59;1725416;82;21864;-82
2023/10/15 01:33:49;;;;;;;13.05;6.40;;;;;;;16.81;48.66;100039.55;1711061;84;21899;-82
2023/10/15 01:36:59;;;;;;;10.23;5.62;;;;;;;16.68;48.49;100036.00;1713777;82;21373;-82
2023/10/15 01:43:20;;;;;;;12.03;8.05;;;;;;;16.68;47.94;100037.38;1741163;82;21294;-82
2023/10/15 01:46:48;;;;;;;11.70;6.80;;;;;;;16.56;47.96;100031.71;1740415;82;21947;-82
2023/10/15 01:49:39;;;;;;;13.80;7.83;;;;;;;16.42;48.20;100025.45;1740901;82;21918;-83
2023/10/15 01:52:47;;;;;;;13.08;8.45;;;;;;;16.44;48.21;100021.92;1740762;82;21685;-82
2023/10/15 01:55:56;;;;;;;13.98;8.05;;;;;;;16.14;48.25;100026.32;1740275;82;21341;-82
2023/10/15 01:59:08;;;;;;;11.75;8.43;;;;;;;16.14;47.65;100021.67;1740424;82;21899;-82
2023/10/15 02:02:13;;;;;;;13.13;8.43;;;;;;;16.09;47.48;100020.95;1694294;84;21799;-81
2023/10/15 02:05:29;;;;;;;17.20;9.90;;;;;;;16.01;47.70;100026.71;1710094;84;21389;-81
2023/10/15 02:08:31;;;;;;;19.10;10.88;;;;;;;16.15;47.46;100017.00;1710745;82;21308;-81
2023/10/15 02:11:43;;;;;;;14.58;9.23;;;;;;;16.13;47.94;100017.73;1710504;84;21331;-82
2023/10/15 02:14:44;;;;;;;15.13;9.95;;;;;;;16.05;48.29;100014.18;1711079;82;21870;-82
2023/10/15 02:17:52;;;;;;;14.80;9.93;;;;;;;15.86;49.04;100012.35;1709449;84;21309;-82
2023/10/15 02:24:12;;;;;;;26.82;11.00;;;;;;;16.48;47.74;100010.75;1702776;82;21307;-81
2023/10/15 02:27:09;;;;;;;16.93;9.88;;;;;;;16.18;48.42;100005.50;1702388;84;21350;-82
2023/10/15 02:30:15;;;;;;;15.68;8.98;;;;;;;16.29;48.49;100004.83;1749889;81;21261;-81
2023/10/15 02:33:25;;;;;;;16.25;9.70;;;;;;;16.35;48.01;100002.55;1769298;81;21280;-81
2023/10/15 02:36:31;;;;;;;16.07;9.38;;;;;;;16.24;48.31;99996.37;1768985;81;21311;-81
2023/10/15 02:39:39;;;;;;;17.17;9.38;;;;;;;16.05;48.41;99993.48;1768251;81;21900;-81
2023/10/15 02:42:53;;;;;;;19.52;9.53;;;;;;;15.96;48.52;99987.91;1768535;81;21319;-82
2023/10/15 02:45:53;;;;;;;14.38;8.53;;;;;;;15.84;48.95;99995.16;1768319;81;21363;-81
2023/10/15 02:49:00;;;;;;;20.45;10.25;;;;;;;16.18;48.15;99984.81;1767916;81;21662;-81
2023/10/15 02:52:18;;;;;;;22.32;9.48;;;;;;;16.35;47.55;99988.75;1764255;81;21348;-81
2023/10/15 02:55:26;;;;;;;16.62;9.30;;;;;;;16.40;47.25;99983.41;1737585;82;22180;-81
2023/10/15 02:58:28;;;;;;;13.72;8.13;;;;;;;16.15;47.13;99982.52;1738058;82;21919;-82
2023/10/15 03:01:33;;;;;;;8.33;6.47;;;;;;;16.06;46.92;99973.11;1732863;81;21358;-82
2023/10/15 03:04:39;;;;;;;18.85;8.95;;;;;;;16.09;46.54;99968.53;1732680;82;21267;-82
2023/10/15 03:07:49;;;;;;;14.93;9.75;;;;;;;15.72;46.73;99970.20;1729621;81;21346;-81
2023/10/15 03:10:58;;;;;;;15.90;9.85;;;;;;;15.74;46.73;99963.07;1728414;83;21294;-82
2023/10/15 03:14:06;;;;;;;14.15;9.03;;;;;;;15.59;47.18;99961.40;1728418;83;21681;-81
2023/10/15 03:17:24;;;;;;;17.35;9.18;;;;;;;15.58;47.04;99954.73;1727297;83;21357;-81
2023/10/15 03:20:25;;;;;;;18.10;9.78;;;;;;;15.50;46.53;99955.81;1728387;83;21910;-81
2023/10/15 03:23:29;;;;;;;16.90;10.63;;;;;;;15.45;46.46;99950.10;1758129;81;21883;-81
2023/10/15 03:26:35;;;;;;;18.00;10.72;;;;;;;15.34;46.99;99954.92;1769575;81;21318;-81
2023/10/15 03:29:42;;;;;;;18.82;10.93;;;;;;;15.40;47.15;99953.20;1765677;81;21273;-81
2023/10/15 03:32:49;;;;;;;20.88;10.63;;;;;;;15.45;47.19;99947.34;1739072;82;21308;-81
2023/10/15 03:35:55;;;;;;;16.15;9.30;;;;;;;15.56;47.15;99942.52;1739133;82;21291;-82
2023/10/15 03:39:10;;;;;;;15.00;8.53;;;;;;;15.81;46.65;99949.58;1729212;81;21323;-81
2023/10/15 03:42:17;;;;;;;13.35;9.15;;;;;;;15.25;47.40;99941.90;1728629;83;21307;-81
2023/10/15 03:45:26;;;;;;;18.20;9.90;;;;;;;15.24;47.66;99935.20;1728709;81;21661;-81
2023/10/15 03:48:29;;;;;;;16.07;9.40;;;;;;;15.48;46.89;99929.52;1728698;83;21291;-81
2023/10/15 03:51:40;;;;;;;21.23;9.38;;;;;;;15.40;46.70;99929.24;1728404;83;21299;-82
2023/10/15 03:54:41;;;;;;;17.65;9.33;;;;;;;15.38;46.41;99927.22;1754565;81;22260;-82
2023/10/15 03:57:51;;;;;;;19.40;9.30;;;;;;;15.40;46.09;99926.48;1753126;81;21887;-82
2023/10/15 04:01:11;;;;;;;16.05;10.05;;;;;;;15.30;46.05;99928.31;1763751;81;21860;-82
2023/10/15 04:04:04;;;;;;;20.88;10.63;;;;;;;15.31;46.30;99928.62;1769493;81;21268;-82
2023/10/15 04:07:19;;;;;;;14.35;9.68;;;;;;;15.32;46.46;99928.09;1768609;81;21284;-81
2023/10/15 04:10:33;;;;;;;15.75;9.03;;;;;;;15.35;46.80;99927.67;1769581;81;21813;-81
2023/10/15 04:13:28;;;;;;;28.77;10.70;;;;;;;15.39;46.03;99928.93;1769594;81;21756;-82
2023/10/15 04:16:34;;;;;;;24.95;14.53;;;;;;;15.23;46.13;99928.01;1769059;81;21319;-82
2023/10/15 04:19:42;;;;;;;36.17;18.82;;;;;;;15.16;46.40;99925.82;1768971;81;21912;-81
2023/10/15 04:22:51;;;;;;;44.55;14.53;;;;;;;15.26;46.19;99930.34;1755670;81;21297;-81
2023/10/15 04:26:00;;;;;;;62.40;14.93;;;;;;;15.32;45.79;99925.34;1745386;81;21332;-81
2023/10/15 04:29:18;;;;;;;55.08;13.60;;;;;;;15.41;45.41;99923.20;1747315;82;21294;-81
2023/10/15 04:32:45;;;;;;;25.32;11.78;;;;;;;15.52;45.20;99919.21;1711176;84;21951;-81
2023/10/15 04:35:37;;;;;;;21.65;11.15;;;;;;;15.64;45.39;99922.19;1695601;84;21293;-82
2023/10/15 04:38:42;;;;;;;22.45;10.60;;;;;;;15.74;45.27;99925.31;1727044;82;21952;-81
2023/10/15 04:41:49;;;;;;;19.05;9.95;;;;;;;15.81;45.37;99921.16;1731687;83;21338;-81
2023/10/15 04:44:57;;;;;;;38.10;17.32;;;;;;;15.86;45.56;99924.10;1732369;83;21314;-82
2023/10/15 04:48:12;;;;;;;54.18;22.87;;;;;;;15.98;45.95;99929.22;1732534;83;21308;-82
2023/10/15 04:51:14;;;;;;;61.73;23.95;;;;;;;16.06;45.86;99929.50;1731962;83;21350;-82
2023/10/15 04:54:23;;;;;;;68.60;28.05;;;;;;;16.15;45.67;99930.93;1732270;83;21281;-81
2023/10/15 04:57:28;;;;;;;64.40;23.27;;;;;;;16.22;45.47;99928.96;1731321;83;21327;-81
2023/10/15 05:00:35;;;;;;;78.47;34.15;;;;;;;16.33;45.27;99934.33;1718815;83;21325;-82
2023/10/15 05:03:45;;;;;;;61.95;27.60;;;;;;;16.38;45.49;99932.27;1703531;84;21375;-82
2023/10/15 05:06:50;;;;;;;29.40;16.00;;;;;;;16.33;45.83;99927.42;1703461;83;21321;-81
2023/10/15 05:09:57;;;;;;;32.58;11.15;;;;;;;16.66;45.59;99922.19;1703594;84;21329;-82
2023/10/15 05:13:04;;;;;;;36.00;11.78;;;;;;;16.84;45.74;99922.23;1703363;84;21295;-83
2023/10/15 05:16:09;;;;;;;20.72;10.25;;;;;;;17.17;45.78;99922.45;1724809;83;21371;-82
2023/10/15 05:19:20;;;;;;;17.95;8.90;;;;;;;17.41;46.04;99934.52;1732669;83;21866;-82
2023/10/15 05:22:24;;;;;;;19.73;10.15;;;;;;;17.29;46.99;99925.61;1732331;83;21881;-84
2023/10/15 05:25:29;;;;;;;12.33;7.47;;;;;;;17.24;47.53;99924.08;1733080;82;21316;-82
2023/10/15 05:28:37;;;;;;;12.50;7.90;;;;;;;17.53;47.29;99925.77;1732935;83;21797;-82
2023/10/15 05:31:42;;;;;;;16.40;8.15;;;;;;;17.60;47.58;99923.23;1732751;83;21367;-82
2023/10/15 05:34:49;;;;;;;12.47;7.62;;;;;;;17.72;47.41;99914.16;1732567;83;21296;-82
2023/10/15 05:37:56;;;;;;;12.07;7.50;;;;;;;17.71;47.73;99911.09;1732340;83;21902;-82
2023/10/15 05:41:05;;;;;;;17.40;7.60;;;;;;;17.80;47.86;99911.11;1732280;83;21320;-82
2023/10/15 05:44:12;;;;;;;13.32;7.05;;;;;;;17.77;48.28;99912.41;1732457;83;21296;-82
2023/10/15 05:47:18;;;;;;;15.15;7.22;;;;;;;18.24;47.57;99911.75;1732439;83;21327;-83
2023/10/15 05:50:23;;;;;;;10.68;6.35;;;;;;;18.54;47.07;99918.64;1732692;83;21312;-83
2023/10/15 05:53:32;;;;;;;12.58;6.80;;;;;;;18.77;46.92;99909.53;1732354;82;21948;-83
2023/10/15 05:56:38;;;;;;;12.47;6.60;;;;;;;18.87;46.80;99905.09;1732221;83;21893;-83
2023/10/15 05:59:43;;;;;;;11.83;6.65;;;;;;;18.92;46.97;99894.68;1728208;83;21856;-82
2023/10/15 06:02:54;;;;;;;14.05;7.37;;;;;;;19.51;46.09;99906.52;1701762;84;21292;-82
2023/10/15 06:05:57;;;;;;;11.85;6.00;;;;;;;20.15;45.02;99903.69;1701998;84;21308;-82
2023/10/15 06:09:05;;;;;;;10.43;6.45;;;;;;;20.07;45.26;99906.31;1724605;83;21304;-83
2023/10/15 06:12:09;;;;;;;9.08;5.95;;;;;;;20.28;44.99;99908.94;1726059;83;21371;-82
2023/10/15 06:15:16;;;;;;;13.40;6.60;;;;;;;19.91;45.85;99902.41;1717792;83;21906;-83
2023/10/15 06:18:22;;;;;;;17.00;6.78;;;;;;;19.80;46.53;99903.82;1703428;84;21306;-82
2023/10/15 06:21:27;;;;;;;12.18;6.60;;;;;;;20.03;46.15;99897.34;1702647;84;21380;-83
2023/10/15 06:24:32;;;;;;;21.05;7.37;;;;;;;20.20;46.02;99891.28;1708021;84;21957;-82
2023/10/15 06:27:37;;;;;;;14.45;6.28;;;;;;;20.39;46.11;99897.45;1719094;83;21699;-82
2023/10/15 06:30:43;;;;;;;18.17;7.08;;;;;;;20.59;45.99;99880.33;1741830;82;21259;-83
2023/10/15 06:33:48;;;;;;;12.33;7.42;;;;;;;20.70;46.24;99879.94;1741813;82;21279;-83
2023/10/15 06:36:53;;;;;;;14.28;6.83;;;;;;;20.87;46.18;99871.88;1741712;82;21319;-83
2023/10/15 06:39:58;;;;;;;12.45;6.80;;;;;;;20.96;46.34;99868.12;1741769;82;21318;-82
2023/10/15 06:43:04;;;;;;;11.33;6.30;;;;;;;21.33;46.07;99870.36;1740948;82;21808;-82
2023/10/15 06:46:10;;;;;;;11.83;5.90;;;;;;;21.31;46.30;99870.59;1741777;82;21622;-83
2023/10/15 06:49:18;;;;;;;13.55;5.55;;;;;;;21.37;46.74;99870.97;1741932;82;21322;-83
2023/10/15 06:52:22;;;;;;;12.30;5.53;;;;;;;21.64;46.67;99868.27;1737016;82;21325;-84
2023/10/15 06:55:31;;;;;;;9.83;5.83;;;;;;;22.07;46.13;99872.64;1706102;84;21828;-84
2023/10/15 06:58:36;;;;;;;11.90;5.90;;;;;;;22.13;46.37;99868.27;1720364;83;21278;-85
2023/10/15 07:01:42;;;;;;;14.35;6.75;;;;;;;22.32;46.21;99862.32;1713239;83;21291;-83
2023/10/15 07:04:48;;;;;;;11.08;5.80;;;;;;;22.53;46.17;99860.55;1715094;83;21899;-82
2023/10/15 07:08:00;;;;;;;20.40;8.93;;;;;;;22.86;45.83;99858.84;1700311;83;21309;-81
2023/10/15 07:11:05;;;;;;;18.55;6.55;;;;;;;22.95;45.60;99850.85;1683283;85;21369;-82
2023/10/15 07:14:11;;;;;;;14.30;6.25;;;;;;;23.19;45.31;99842.91;1697878;83;21352;-83
2023/10/15 07:17:17;;;;;;;10.63;5.20;;;;;;;23.25;45.30;99846.59;1695363;84;22008;-84
2023/10/15 07:20:27;;;;;;;11.97;5.20;;;;;;;22.74;46.47;99842.05;1696334;83;21949;-84
2023/10/15 07:23:35;;;;;;;13.35;5.60;;;;;;;22.76;46.83;99843.44;1696657;83;21347;-83
2023/10/15 07:26:40;;;;;;;15.55;6.45;;;;;;;23.03;46.33;99850.36;1696128;84;21380;-84
2023/10/15 07:29:45;;;;;;;15.45;6.65;;;;;;;23.05;46.37;99850.91;1694038;84;21862;-83
2023/10/15 07:32:59;;;;;;;14.80;7.97;;;;;;;23.19;45.99;99845.14;1685768;85;21356;-82
2023/10/15 07:36:05;;;;;;;13.48;7.53;;;;;;;23.34;45.79;99841.61;1687173;85;21337;-82
2023/10/15 07:39:10;;;;;;;31.37;8.28;;;;;;;23.55;45.32;99836.94;1687010;85;21313;-82
2023/10/15 07:42:15;;;;;;;13.08;8.33;;;;;;;23.58;45.19;99847.57;1686240;85;21886;-83
2023/10/15 07:45:27;;;;;;;15.68;8.88;;;;;;;23.77;44.67;99833.98;1687269;85;21332;-83
2023/10/15 07:48:31;;;;;;;15.13;8.58;;;;;;;23.90;43.96;99837.66;1687539;85;21902;-82
2023/10/15 07:51:37;;;;;;;10.32;7.10;;;;;;;24.16;43.39;99831.54;1687263;85;21352;-82
2023/10/15 07:54:44;;;;;;;15.00;8.15;;;;;;;24.17;43.17;99829.02;1687424;85;21881;-81
2023/10/15 07:57:51;;;;;;;14.23;7.45;;;;;;;24.36;42.95;99815.38;1687208;85;21341;-83
2023/10/15 08:00:56;;;;;;;19.40;8.10;;;;;;;24.62;42.49;99810.63;1686984;85;21344;-83
2023/10/15 08:04:03;;;;;;;17.57;7.15;;;;;;;24.66;42.52;99801.95;1686808;84;21309;-83
2023/10/15 08:07:10;;;;;;;15.80;6.50;;;;;;;24.90;42.27;99792.96;1686813;85;21305;-83
2023/10/15 08:10:21;;;;;;;11.33;6.15;;;;;;;25.18;41.33;99795.14;1687055;85;21309;-82
2023/10/15 08:13:25;;;;;;;13.95;5.80;;;;;;;25.22;41.43;99795.42;1686941;85;21337;-83
2023/10/15 08:16:31;;;;;;;12.23;6.67;;;;;;;25.12;41.74;99791.23;1686920;85;21344;-82
2023/10/15 08:19:37;;;;;;;13.03;6.67;;;;;;;25.04;41.74;99792.64;1675133;85;21317;-85
2023/10/15 08:22:40;;;;;;;27.65;9.48;;;;;;;25.19;41.55;99788.42;1690884;85;21326;-85
2023/10/15 08:25:32;;;;;;;85.25;38.65;;;;;;;25.35;41.12;99784.15;1691194;83;21910;-84
2023/10/15 08:28:39;;;;;;;;;;;;;;;25.64;40.27;99786.55;1696807;82;21851;-83
2023/10/15 08:31:44;;;;;;;49.00;19.07;;;;;;;25.64;40.17;99782.88;1695868;83;20723;-80
2023/10/15 08:34:52;;;;;;;22.40;10.82;;;;;;;25.58;40.37;99780.67;1694258;84;21847;-84
2023/10/15 08:37:59;;;;;;;24.85;11.20;;;;;;;25.44;40.37;99780.47;1695904;84;21286;-82
2023/10/15 08:41:05;;;;;;;45.45;23.65;;;;;;;25.70;39.78;99779.78;1695669;84;21855;-83
2023/10/15 08:44:18;;;;;;;59.03;24.70;;;;;;;25.74;39.89;99773.88;1696110;84;21385;-83
2023/10/15 08:47:22;;;;;;;15.83;5.87;;;;;;;26.01;39.42;99766.98;1683913;85;21359;-82
2023/10/15 08:50:29;;;;;;;23.65;7.50;;;;;;;25.80;39.24;99761.27;1683875;85;21308;-82
2023/10/15 08:53:35;;;;;;;16.77;6.40;;;;;;;25.86;38.86;99759.53;1715073;83;21420;-83
2023/10/15 08:56:34;;;;;;;34.05;14.33;;;;;;;25.70;38.83;99758.77;1724738;83;21894;-82
2023/10/15 08:59:32;;;;;;;75.35;28.67;;;;;;;25.85;38.72;99754.23;1724869;83;21343;-82
2023/10/15 09:02:18;;;;;;;34.85;13.58;;;;;;;26.14;37.88;99748.68;1724876;83;21296;-83
2023/10/15 09:05:10;;;;;;;31.23;13.10;;;;;;;26.18;37.42;99742.20;1724758;83;21303;-82
2023/10/15 09:08:04;;;;;;;14.30;5.50;;;;;;;26.23;37.56;99736.55;1724815;83;21282;-82
2023/10/15 09:10:53;;;;;;;8.35;3.87;;;;;;;26.18;37.64;99723.98;1724560;83;21316;-82
2023/10/15 09:14:02;;;;;;;13.70;5.80;;;;;;;26.14;37.72;99725.69;1724145;83;21292;-82
2023/10/15 09:17:14;;;;;;;40.28;15.58;;;;;;;26.13;37.66;99717.59;1723891;83;22284;-82
2023/10/15 09:20:26;;;;;;;34.75;13.30;;;;;;;26.28;37.40;99720.25;1723889;83;21292;-83
2023/10/15 09:23:29;;;;;;;62.85;23.57;;;;;;;26.24;37.26;99710.18;1725151;83;21344;-83
2023/10/15 09:26:36;;;;;;;15.35;5.70;;;;;;;26.36;36.99;99708.97;1724536;83;21320;-84
2023/10/15 09:29:43;;;;;;;39.92;14.93;;;;;;;26.16;36.57;99696.83;1708809;83;22180;-83
2023/10/15 09:32:49;;;;;;;24.30;9.28;;;;;;;26.32;36.45;99695.27;1723335;83;21311;-82
2023/10/15 09:35:54;;;;;;;12.75;5.55;;;;;;;26.38;36.16;99691.27;1724461;83;21312;-82
2023/10/15 09:39:00;;;;;;;185.78;73.02;;;;;;;26.45;35.98;99683.40;1691562;83;21848;-83
2023/10/15 09:42:06;;;;;;;45.83;19.02;;;;;;;26.50;36.05;99679.14;1723404;83;21369;-82
2023/10/15 09:45:18;;;;;;;14.15;6.40;;;;;;;26.33;35.88;99675.91;1724666;83;21265;-82
2023/10/15 09:48:22;;;;;;;32.05;11.43;;;;;;;26.39;35.83;99671.34;1724547;83;21292;-81
2023/10/15 09:51:27;;;;;;;10.45;4.85;;;;;;;26.43;36.09;99667.42;1723359;83;21340;-82
2023/10/15 09:54:37;;;;;;;15.13;4.95;;;;;;;26.51;36.13;99656.97;1724742;83;21327;-81
2023/10/15 09:57:42;;;;;;;13.85;5.20;;;;;;;26.72;35.59;99659.81;1724392;83;21296;-82
2023/10/15 10:01:08;;;;;;;22.58;7.42;;;;;;;26.90;35.27;99654.53;1724729;83;21300;-81
2023/10/15 10:04:24;;;;;;;17.77;7.17;;;;;;;26.82;35.50;99650.98;1724916;83;21350;-81
2023/10/15 10:08:05;;;;;;;7.30;3.47;;;;;;;27.04;34.97;99645.64;1672892;83;21288;-82
2023/10/15 10:11:34;;;;;;;11.40;4.17;;;;;;;26.94;34.77;99643.81;1724703;83;21304;-81
2023/10/15 10:15:16;;;;;;;13.32;2.92;;;;;;;26.73;34.99;99636.23;1725364;83;21850;-81
2023/10/15 10:18:22;;;;;;;6.60;3.45;;;;;;;26.75;35.27;99627.51;1724856;83;21835;-82
2023/10/15 10:21:28;;;;;;;11.70;3.85;;;;;;;26.74;35.01;99622.47;1725199;83;21332;-81
2023/10/15 10:24:48;;;;;;;5.30;2.77;;;;;;;26.49;35.30;99618.59;1724763;83;21323;-81
2023/10/15 10:27:55;;;;;;;7.75;2.47;;;;;;;26.63;34.99;99616.73;1711683;83;21343;-81
2023/10/15 10:31:09;;;;;;;8.78;3.30;;;;;;;26.87;34.43;99608.86;1724750;82;21608;-81
2023/10/15 10:34:14;;;;;;;9.63;3.27;;;;;;;26.82;34.72;99602.75;1732934;82;21869;-82
2023/10/15 10:37:31;;;;;;;8.75;3.33;;;;;;;26.68;34.86;99606.84;1725240;82;21352;-82
2023/10/15 10:41:04;;;;;;;14.87;7.15;;;;;;;26.74;34.74;99602.00;1702002;84;22199;-83
2023/10/15 10:44:17;;;;;;;8.50;4.10;;;;;;;26.71;34.27;99593.61;1701201;84;21312;-83
2023/10/15 10:47:33;;;;;;;14.83;5.15;;;;;;;26.74;34.54;99600.03;1701840;84;21311;-81
2023/10/15 10:50:54;;;;;;;8.00;3.75;;;;;;;26.81;34.23;99590.40;1701933;84;21312;-82
2023/10/15 10:54:10;;;;;;;5.72;3.02;;;;;;;26.81;33.85;99585.62;1703760;83;21309;-82
2023/10/15 10:57:18;;;;;;;10.35;3.60;;;;;;;26.81;33.61;99589.00;1703760;84;21910;-82
2023/10/15 11:00:22;;;;;;;7.60;3.30;;;;;;;26.75;33.70;99587.66;1703906;83;21302;-82
2023/10/15 11:03:29;;;;;;;6.03;2.70;;;;;;;26.70;33.41;99578.48;1682701;84;21329;-81
2023/10/15 11:06:36;;;;;;;4.95;2.77;;;;;;;26.53;33.38;99573.94;1702606;84;21929;-82
2023/10/15 11:09:42;;;;;;;5.97;3.05;;;;;;;26.54;33.34;99578.41;1703485;84;21291;-82
2023/10/15 11:12:49;;;;;;;5.62;3.05;;;;;;;26.64;33.01;99579.70;1701893;84;21882;-82
2023/10/15 11:15:56;;;;;;;10.43;2.30;;;;;;;26.60;33.03;99578.05;1720294;82;21371;-82
2023/10/15 11:19:02;;;;;;;6.15;3.55;;;;;;;26.63;32.88;99569.59;1711461;82;21841;-82
2023/10/15 11:22:10;;;;;;;8.48;4.05;;;;;;;26.51;33.18;99572.84;1731558;82;21940;-83
2023/10/15 11:25:14;;;;;;;7.30;4.00;;;;;;;26.18;33.34;99571.80;1732288;82;21315;-83
2023/10/15 11:28:18;;;;;;;10.43;4.12;;;;;;;26.29;33.35;99566.91;1732652;82;21317;-82
2023/10/15 11:31:23;;;;;;;6.37;2.90;;;;;;;26.42;32.77;99564.80;1732429;82;21315;-82
2023/10/15 11:34:33;;;;;;;6.17;3.40;;;;;;;26.59;32.66;99555.36;1731768;82;21292;-81
2023/10/15 11:37:40;;;;;;;5.25;3.33;;;;;;;26.50;32.67;99548.75;1731885;82;21665;-81
2023/10/15 11:40:47;;;;;;;3.35;2.42;;;;;;;26.53;33.03;99543.92;1732917;82;21995;-82
2023/10/15 11:43:56;;;;;;;10.98;3.08;;;;;;;26.78;32.53;99544.73;1731587;82;21777;-82
2023/10/15 11:47:12;;;;;;;5.47;3.15;;;;;;;26.61;32.67;99543.26;1732170;82;21657;-84
2023/10/15 11:50:12;;;;;;;10.48;3.77;;;;;;;26.55;33.02;99543.64;1732747;82;21845;-83
2023/10/15 11:53:30;;;;;;;8.68;3.37;;;;;;;26.27;33.45;99537.78;1703931;82;21364;-83
2023/10/15 11:56:36;;;;;;;6.08;2.65;;;;;;;26.31;33.25;99535.23;1687136;85;21370;-82
2023/10/15 11:59:42;;;;;;;6.55;3.05;;;;;;;26.38;33.18;99528.67;1704268;84;21363;-83
2023/10/15 12:02:53;;;;;;;7.72;3.37;;;;;;;26.61;33.13;99536.82;1680566;85;21678;-82
2023/10/15 12:05:58;;;;;;;6.17;2.55;;;;;;;26.54;33.06;99537.20;1705300;84;21300;-82
2023/10/15 12:09:06;;;;;;;4.28;2.30;;;;;;;26.83;32.50;99543.26;1697445;83;21856;-83
2023/10/15 12:12:12;;;;;;;4.87;2.77;;;;;;;26.74;32.12;99536.91;1698100;84;21318;-83
2023/10/15 12:15:18;;;;;;;4.42;2.50;;;;;;;26.70;32.20;99535.84;1697542;83;21313;-83
2023/10/15 12:18:24;;;;;;;5.67;2.33;;;;;;;26.58;31.96;99525.62;1698127;84;21608;-83
2023/10/15 12:21:29;;;;;;;4.33;2.58;;;;;;;26.43;31.88;99531.44;1698017;84;21345;-81
2023/10/15 12:24:36;;;;;;;8.20;2.52;;;;;;;26.60;31.92;99535.99;1697652;83;21349;-83
2023/10/15 12:27:42;;;;;;;7.85;2.95;;;;;;;26.25;32.53;99530.22;1696707;84;21332;-82
2023/10/15 12:30:48;;;;;;;6.95;3.00;;;;;;;26.33;32.43;99526.77;1708145;83;21400;-83
2023/10/15 12:33:56;;;;;;;6.05;2.85;;;;;;;26.56;32.05;99523.70;1703495;84;21340;-82
2023/10/15 12:37:02;;;;;;;8.23;3.08;;;;;;;26.49;32.38;99526.06;1698481;82;21372;-81
2023/10/15 12:40:12;;;;;;;7.70;3.20;;;;;;;26.59;32.30;99527.89;1718931;83;21310;-82
2023/10/15 12:43:18;;;;;;;6.47;2.50;;;;;;;26.68;32.24;99521.87;1689362;85;21340;-81
2023/10/15 12:46:24;;;;;;;9.28;3.27;;;;;;;26.43;32.31;99517.42;1699311;83;21316;-81
2023/10/15 12:49:30;;;;;;;6.92;2.92;;;;;;;26.44;32.38;99512.08;1696808;84;21714;-81
2023/10/15 12:52:36;;;;;;;12.43;3.42;;;;;;;26.24;32.62;99511.17;1695706;83;21344;-82
2023/10/15 12:55:44;;;;;;;8.78;3.12;;;;;;;26.28;32.92;99509.19;1696716;84;21313;-83
2023/10/15 12:58:50;;;;;;;6.53;3.30;;;;;;;26.31;33.03;99503.82;1697002;84;21313;-81
2023/10/15 13:01:56;;;;;;;8.13;3.22;;;;;;;25.63;34.10;99500.63;1715972;83;21305;-82
2023/10/15 13:05:03;;;;;;;9.13;3.33;;;;;;;25.57;34.44;99499.01;1716810;83;21297;-82
2023/10/15 13:08:12;;;;;;;7.12;3.65;;;;;;;25.48;34.74;99500.20;1721896;83;21287;-82
2023/10/15 13:11:18;;;;;;;6.33;3.22;;;;;;;25.25;35.25;99498.18;1724657;83;21321;-83
2023/10/15 13:14:24;;;;;;;11.25;3.58;;;;;;;25.21;35.38;99495.12;1725823;83;21926;-82
2023/10/15 13:17:31;;;;;;;8.25;3.55;;;;;;;25.27;35.50;99493.70;1724458;83;21860;-83
2023/10/15 13:20:39;;;;;;;10.30;3.77;;;;;;;25.23;35.90;99492.89;1725596;83;21278;-82
2023/10/15 13:23:46;;;;;;;10.60;3.85;;;;;;;24.99;36.67;99493.33;1725886;83;21850;-83
2023/10/15 13:26:52;;;;;;;10.98;4.00;;;;;;;24.58;37.27;99487.17;1724455;83;21358;-82
2023/10/15 13:29:58;;;;;;;11.20;4.55;;;;;;;24.84;37.11;99483.63;1725630;83;21856;-82
2023/10/15 13:33:03;;;;;;;8.40;4.10;;;;;;;24.73;37.46;99483.70;1725618;83;21267;-81
2023/10/15 13:36:13;;;;;;;6.60;3.37;;;;;;;25.51;36.54;99487.60;1710790;83;21887;-83
2023/10/15 13:39:19;;;;;;;6.35;3.47;;;;;;;25.18;37.14;99494.90;1710364;84;21277;-82
2023/10/15 13:42:26;;;;;;;11.70;3.80;;;;;;;25.18;37.19;99494.33;1763823;81;21300;-83
2023/10/15 13:45:31;;;;;;;10.50;3.50;;;;;;;25.34;37.05;99496.98;1767184;81;21289;-82
2023/10/15 13:48:37;;;;;;;6.53;3.92;;;;;;;25.07;37.38;99491.32;1768375;81;21945;-83
2023/10/15 13:51:43;;;;;;;5.80;3.45;;;;;;;25.06;37.66;99492.42;1768787;81;21315;-83
2023/10/15 13:54:49;;;;;;;6.08;3.33;;;;;;;25.17;37.47;99491.27;1769335;81;21334;-82
2023/10/15 13:57:54;;;;;;;6.30;3.00;;;;;;;24.92;37.68;99485.81;1768787;81;21323;-81
2023/10/15 14:01:00;;;;;;;9.08;2.90;;;;;;;25.01;37.72;99484.07;1769245;81;21332;-82
2023/10/15 14:04:05;;;;;;;7.33;3.10;;;;;;;24.80;38.10;99486.20;1768250;81;21925;-82
2023/10/15 14:07:11;;;;;;;5.90;3.20;;;;;;;24.98;37.81;99478.52;1768449;81;21315;-82
2023/10/15 14:10:18;;;;;;;6.83;2.98;;;;;;;25.19;37.49;99476.41;1769539;81;21272;-83
2023/10/15 14:13:23;;;;;;;10.25;3.22;;;;;;;25.34;37.09;99474.59;1769746;81;21833;-83
2023/10/15 14:16:29;;;;;;;8.35;3.12;;;;;;;25.14;37.35;99473.66;1745278;81;21594;-83
2023/10/15 14:19:38;;;;;;;17.15;4.87;;;;;;;24.78;38.03;99480.61;1739309;82;21839;-83
2023/10/15 14:22:45;;;;;;;12.65;5.22;;;;;;;25.51;36.98;99483.41;1765019;81;21876;-82
2023/10/15 14:25:51;;;;;;;11.83;5.00;;;;;;;25.22;37.38;99482.00;1746643;81;21674;-82
2023/10/15 14:28:56;;;;;;;11.30;5.42;;;;;;;24.54;38.58;99477.13;1757214;81;21948;-84
2023/10/15 14:32:03;;;;;;;12.53;5.72;;;;;;;24.93;38.01;99474.89;1769009;81;21287;-82
2023/10/15 14:35:12;;;;;;;15.65;5.97;;;;;;;24.52;38.68;99478.55;1767716;80;21241;-82